Pagina principale
METAR-TAF:

METAR-TAF

Aeroporti :

Montichiari

Brescia, Italia

latitudine: 45-24-02N, longitudine: 010-18-59E, altezza: 104 m

Osservazione

Il bollettino è stato emesso 18 minuti fa, alle 17:50 UTC
Vento 2 kt da direzioni variabili
Temperature 23°C
Umidità 47%
Pressione 1015 hPa
Visibilità 10 km o più

METAR: LIPO 131750Z AUTO VRB02KT 9999 NCD 23/11 Q1015

Ora: 20:08 (18:08 UTC)

Previsione

Il bollettino è stato emesso 1 ora e 8 minuti fa, alle 17:00 UTC
Previsione valida dal 13 alle 18 UTC al 14 alle 18 UTC
Vento 6 kt da est
Visibilità 10 km o più
nessuna nube inferiore a 1500 m e nessun cumulonembo

TAF: LIPO 131700Z 1318/1418 10006KT CAVOK

Osservazioni e previsioni meteorologiche di più di 4000 aeroporti (messaggi METAR e TAF).

Le stazioni disponibili sono rappresentate dai dischi gialli e rossi sulla carta.

Puntare il mouse per vedere il nome della stazione.

Clicca sopra per visualizzare le osservazioni e previsioni meteorologiche.

Per cambiare la mappa : fare clic sui pulsanti verdi con una croce nera per ingrandire, il pulsante verde con un trattino per diminuire, o sulla freccia verde per le mappe adiacenti.


METAR-TAF: